Time;durP1;ratioP1;P1;durP2;ratioP2;P2;SDS_P1;SDS_P2;PMS_P1;PMS_P2;Temp;Humidity;BMP_temperature;BMP_pressure;BME280_temperature;BME280_humidity;BME280_pressure;Samples;Min_cycle;Max_cycle;Signal;HPM_P1;HPM_P2
2021/03/25 00:01:21;;;;;;;13.65;8.77;;;;;;;10.69;33.52;101612.06;5005329;28;20501;-79
2021/03/25 00:03:52;;;;;;;12.85;8.32;;;;;;;10.67;33.59;101611.31;4984819;28;20068;-79
2021/03/25 00:06:20;;;;;;;13.55;8.50;;;;;;;10.63;33.60;101613.38;5004099;28;20046;-79
2021/03/25 00:08:47;;;;;;;14.38;7.97;;;;;;;10.60;33.63;101619.09;5017617;28;20482;-79
2021/03/25 00:11:15;;;;;;;14.82;8.35;;;;;;;10.59;33.47;101617.34;4992512;28;20490;-79
2021/03/25 00:13:42;;;;;;;14.13;7.65;;;;;;;10.57;33.61;101612.97;5010517;28;20073;-79
2021/03/25 00:16:10;;;;;;;12.73;7.65;;;;;;;10.53;33.75;101613.19;5014071;28;20512;-78
2021/03/25 00:18:38;;;;;;;14.88;7.90;;;;;;;10.50;33.75;101609.81;5001410;28;20121;-79
2021/03/25 00:21:08;;;;;;;14.38;7.57;;;;;;;10.49;33.84;101600.75;5001138;28;20049;-79
2021/03/25 00:23:35;;;;;;;13.60;7.80;;;;;;;10.44;33.71;101607.56;5027026;28;20060;-79
2021/03/25 00:26:03;;;;;;;15.13;8.13;;;;;;;10.42;33.77;101598.56;4994417;28;20050;-79
2021/03/25 00:28:30;;;;;;;14.85;7.45;;;;;;;10.39;33.73;101604.25;5010304;28;20070;-79
2021/03/25 00:30:58;;;;;;;16.75;8.35;;;;;;;10.37;33.89;101598.91;4977849;28;20054;-79
2021/03/25 00:33:25;;;;;;;13.55;7.95;;;;;;;10.34;33.75;101601.00;5007609;28;20493;-79
2021/03/25 00:35:53;;;;;;;14.00;7.25;;;;;;;10.32;33.81;101597.50;4994706;28;20501;-79
2021/03/25 00:38:21;;;;;;;13.48;8.13;;;;;;;10.30;33.95;101589.41;5002343;28;20398;-79
2021/03/25 00:40:50;;;;;;;15.98;8.43;;;;;;;10.28;33.84;101590.53;5007209;28;20046;-79
2021/03/25 00:43:19;;;;;;;12.20;7.45;;;;;;;10.23;33.99;101582.63;5004131;28;20049;-79
2021/03/25 00:45:49;;;;;;;15.80;8.43;;;;;;;10.21;33.86;101586.47;5016020;28;20049;-79
2021/03/25 00:48:17;;;;;;;15.60;8.80;;;;;;;10.18;33.79;101589.44;4978536;28;20130;-79
2021/03/25 00:50:48;;;;;;;14.55;8.05;;;;;;;10.13;34.16;101579.69;5015931;28;20485;-79
2021/03/25 00:53:19;;;;;;;14.98;8.77;;;;;;;10.11;34.31;101589.91;5008692;28;20039;-79
2021/03/25 00:55:47;;;;;;;16.02;8.63;;;;;;;10.08;34.25;101589.22;4993920;28;20124;-80
2021/03/25 00:58:14;;;;;;;17.80;9.55;;;;;;;10.02;34.20;101593.31;5006128;28;20117;-80
2021/03/25 01:00:42;;;;;;;14.13;8.07;;;;;;;10.02;34.43;101596.03;4989733;28;20073;-80
2021/03/25 01:03:12;;;;;;;14.20;7.65;;;;;;;10.00;34.28;101589.78;5002301;28;20390;-80
2021/03/25 01:05:41;;;;;;;15.75;8.25;;;;;;;9.98;34.36;101591.75;4997876;28;20037;-80
2021/03/25 01:08:09;;;;;;;15.60;8.43;;;;;;;9.96;34.30;101592.88;4996974;28;20034;-80
2021/03/25 01:10:39;;;;;;;12.45;8.43;;;;;;;9.95;34.48;101591.13;5012718;28;20042;-80
2021/03/25 01:13:11;;;;;;;12.70;8.05;;;;;;;9.94;34.73;101587.50;4986902;28;20082;-80
2021/03/25 01:15:39;;;;;;;13.82;7.63;;;;;;;9.91;34.65;101581.38;4984980;28;20520;-80
2021/03/25 01:18:07;;;;;;;13.68;7.82;;;;;;;9.91;34.61;101578.66;4986687;28;20481;-80
2021/03/25 01:20:38;;;;;;;16.10;9.23;;;;;;;9.89;34.64;101573.28;4976771;28;20065;-80
2021/03/25 01:23:07;;;;;;;14.95;8.05;;;;;;;9.87;34.80;101569.81;4987238;28;20045;-80
2021/03/25 01:25:35;;;;;;;13.45;8.02;;;;;;;9.86;34.61;101572.66;5000242;28;20474;-79
2021/03/25 01:28:05;;;;;;;14.80;8.32;;;;;;;9.85;34.70;101569.03;4982787;28;20042;-80
2021/03/25 01:30:35;;;;;;;13.73;7.35;;;;;;;9.83;34.72;101567.41;4996042;28;20073;-80
2021/03/25 01:33:06;;;;;;;13.30;8.18;;;;;;;9.80;34.89;101565.75;4998168;28;20073;-79
2021/03/25 01:35:36;;;;;;;13.32;7.82;;;;;;;9.78;34.39;101559.53;4993346;28;20038;-79
2021/03/25 01:38:04;;;;;;;14.50;7.50;;;;;;;9.75;34.75;101555.16;4977125;28;20048;-79
2021/03/25 01:40:37;;;;;;;13.02;7.82;;;;;;;9.74;34.96;101558.88;5008870;28;20077;-79
2021/03/25 01:43:16;;;;;;;12.75;7.70;;;;;;;9.73;35.16;101551.66;4995534;28;20474;-80
2021/03/25 01:45:49;;;;;;;14.13;7.68;;;;;;;9.70;34.88;101556.50;4991414;28;20118;-79
2021/03/25 01:48:18;;;;;;;;;;;;;;;9.41;35.42;101555.78;5005962;28;20053;-79
2021/03/25 01:50:46;;;;;;;15.07;7.78;;;;;;;9.58;34.85;101560.03;4977767;28;19965;-80
2021/03/25 01:53:53;;;;;;;13.90;7.60;;;;;;;9.63;35.24;101555.16;4987548;28;20048;-80
2021/03/25 01:56:49;;;;;;;13.15;7.32;;;;;;;9.57;35.40;101550.97;4972302;28;20117;-79
2021/03/25 01:59:39;;;;;;;14.50;7.70;;;;;;;9.58;35.33;101549.13;4995650;28;20092;-79
2021/03/25 02:02:17;;;;;;;12.65;7.38;;;;;;;9.55;35.29;101541.13;4993767;28;20046;-79
2021/03/25 02:04:58;;;;;;;14.13;7.90;;;;;;;9.53;35.26;101541.28;4992998;28;20057;-79
2021/03/25 02:07:42;;;;;;;11.93;7.38;;;;;;;9.50;35.39;101546.06;4978259;28;20053;-79
2021/03/25 02:10:19;;;;;;;15.20;8.40;;;;;;;9.47;34.98;101533.50;4978964;28;20046;-79
2021/03/25 02:13:01;;;;;;;14.77;8.15;;;;;;;9.46;35.49;101539.97;5000968;28;20072;-80
2021/03/25 02:15:37;;;;;;;14.85;8.40;;;;;;;9.45;35.49;101540.06;4998776;28;20046;-79
2021/03/25 02:18:19;;;;;;;12.13;7.55;;;;;;;9.43;35.49;101537.44;5002960;28;20054;-79
2021/03/25 02:21:33;;;;;;;14.77;8.57;;;;;;;9.39;35.43;101533.16;4997099;28;20041;-80
2021/03/25 02:24:13;;;;;;;15.45;8.73;;;;;;;9.38;35.54;101536.91;4990367;28;20050;-79
2021/03/25 02:26:48;;;;;;;15.30;8.50;;;;;;;9.36;35.44;101530.66;5001247;28;20074;-79
2021/03/25 02:29:37;;;;;;;16.20;8.68;;;;;;;9.35;35.79;101532.53;4993648;28;20046;-79
2021/03/25 02:32:11;;;;;;;14.48;8.73;;;;;;;9.32;35.36;101534.56;5010118;28;20057;-79
2021/03/25 02:34:45;;;;;;;16.05;8.60;;;;;;;9.30;35.69;101531.09;4988128;28;20057;-79
2021/03/25 02:37:18;;;;;;;15.18;8.27;;;;;;;9.27;35.59;101526.72;5007141;28;20133;-79
2021/03/25 02:39:52;;;;;;;14.13;8.38;;;;;;;9.26;35.57;101530.44;4991789;28;20100;-80
2021/03/25 02:42:45;;;;;;;14.45;8.85;;;;;;;9.22;36.05;101526.16;4992231;28;20074;-79
2021/03/25 02:45:18;;;;;;;17.00;9.35;;;;;;;9.22;35.67;101533.47;4992897;28;20057;-79
2021/03/25 02:47:50;;;;;;;14.77;8.88;;;;;;;9.18;35.73;101527.38;4992253;28;20089;-79
2021/03/25 02:50:23;;;;;;;16.83;8.75;;;;;;;9.18;35.88;101527.38;4993357;28;20121;-79
2021/03/25 02:52:56;;;;;;;17.00;8.30;;;;;;;9.14;35.78;101528.56;4989181;28;20046;-79
2021/03/25 02:55:23;;;;;;;15.43;8.10;;;;;;;9.11;35.75;101533.38;4996925;28;20129;-79
2021/03/25 02:57:59;;;;;;;;;;;;;;;8.87;36.42;101525.91;4990012;28;20042;-80
2021/03/25 03:00:37;;;;;;;13.50;7.78;;;;;;;9.08;35.91;101523.53;4986430;28;19931;-79
2021/03/25 03:03:08;;;;;;;14.15;8.18;;;;;;;9.12;36.11;101526.94;5005106;28;20069;-79
2021/03/25 03:05:59;;;;;;;13.55;7.97;;;;;;;9.10;36.21;101518.84;4993557;28;20502;-79
2021/03/25 03:08:31;;;;;;;;;;;;;;;8.84;36.59;101522.50;4992634;28;20098;-79
2021/03/25 03:11:04;;;;;;;13.70;7.88;;;;;;;9.06;36.27;101514.56;4985380;28;19922;-79
2021/03/25 03:13:38;;;;;;;17.20;9.13;;;;;;;9.08;36.11;101517.19;5004228;28;20409;-80
2021/03/25 03:16:12;;;;;;;13.10;7.40;;;;;;;9.09;36.26;101519.81;4978904;28;20050;-79
2021/03/25 03:18:44;;;;;;;14.35;7.43;;;;;;;9.10;36.19;101517.97;4983709;28;20084;-80
2021/03/25 03:21:28;;;;;;;14.25;8.25;;;;;;;9.09;36.28;101517.09;4982189;28;20121;-79
2021/03/25 03:24:17;;;;;;;13.57;7.47;;;;;;;9.07;36.12;101520.91;5006562;28;20038;-79
2021/03/25 03:27:01;;;;;;;16.52;7.93;;;;;;;9.09;36.60;101513.47;4999607;28;20037;-80
2021/03/25 03:29:31;;;;;;;15.40;8.07;;;;;;;9.10;36.33;101512.50;4998087;28;20084;-80
2021/03/25 03:32:15;;;;;;;14.63;8.13;;;;;;;9.12;36.73;101510.56;4981927;28;20221;-79
2021/03/25 03:34:55;;;;;;;12.75;7.93;;;;;;;9.10;36.13;101516.13;4992695;28;20056;-79
2021/03/25 03:37:26;;;;;;;15.75;8.10;;;;;;;9.09;36.33;101513.47;4980795;28;20054;-80
2021/03/25 03:40:06;;;;;;;14.05;7.60;;;;;;;9.11;36.12;101519.72;4975224;28;20039;-80
2021/03/25 03:42:57;;;;;;;13.98;7.65;;;;;;;9.11;36.57;101519.72;4971605;28;20077;-80
2021/03/25 03:45:26;;;;;;;14.77;8.05;;;;;;;9.11;36.38;101523.31;4982427;28;20436;-80
2021/03/25 03:48:19;;;;;;;14.15;7.63;;;;;;;9.12;36.49;101527.81;4997894;28;20078;-80
2021/03/25 03:50:51;;;;;;;15.05;8.35;;;;;;;9.13;36.93;101531.41;5015290;28;20490;-80
2021/03/25 03:53:19;;;;;;;13.38;7.90;;;;;;;9.10;36.42;101520.69;5017076;28;20094;-80
2021/03/25 03:55:47;;;;;;;12.55;7.30;;;;;;;9.13;36.49;101526.81;4987740;28;20474;-79
2021/03/25 03:58:24;;;;;;;14.43;8.07;;;;;;;9.15;37.13;101527.56;5013238;28;20141;-80
2021/03/25 04:01:06;;;;;;;12.65;7.00;;;;;;;9.14;36.81;101524.94;4986408;28;20137;-79
2021/03/25 04:03:39;;;;;;;12.65;8.20;;;;;;;9.16;36.93;101532.06;4994155;28;20053;-79
2021/03/25 04:06:13;;;;;;;13.77;8.20;;;;;;;9.16;37.06;101536.63;5003275;28;20429;-79
2021/03/25 04:09:05;;;;;;;13.55;7.55;;;;;;;9.17;37.08;101538.38;4994638;28;20042;-80
2021/03/25 04:11:45;;;;;;;12.13;7.60;;;;;;;9.15;37.07;101529.44;4992192;28;20137;-80
2021/03/25 04:14:17;;;;;;;14.68;7.72;;;;;;;9.17;36.90;101531.06;4986146;28;20596;-80
2021/03/25 04:17:19;;;;;;;13.90;7.63;;;;;;;9.16;36.73;101533.91;5003537;28;20068;-80
2021/03/25 04:19:54;;;;;;;13.65;7.93;;;;;;;9.17;36.74;101531.06;4984228;28;20050;-80
2021/03/25 04:22:44;;;;;;;15.88;8.65;;;;;;;9.16;37.13;101537.50;4992356;28;20505;-80
2021/03/25 04:25:18;;;;;;;15.75;8.20;;;;;;;9.19;37.23;101550.97;5015503;28;20057;-80
2021/03/25 04:27:49;;;;;;;14.50;7.80;;;;;;;9.18;37.02;101551.94;4996718;28;20070;-80
2021/03/25 04:30:25;;;;;;;13.18;7.70;;;;;;;9.21;37.72;101554.47;5010197;28;20092;-80
2021/03/25 04:32:53;;;;;;;14.43;7.97;;;;;;;9.17;36.86;101552.03;5007999;28;20084;-79
2021/03/25 04:35:22;;;;;;;16.02;8.05;;;;;;;9.18;37.04;101549.22;5001777;28;20048;-80
2021/03/25 04:37:52;;;;;;;15.88;8.48;;;;;;;9.20;37.19;101546.38;5014168;28;20218;-80
2021/03/25 04:40:25;;;;;;;13.82;8.57;;;;;;;9.19;37.22;101541.91;5015963;28;20555;-80
2021/03/25 04:42:53;;;;;;;14.35;8.00;;;;;;;9.16;36.87;101533.91;5022722;28;20053;-80
2021/03/25 04:45:44;;;;;;;;;;;;;;;;;;;;;
2021/03/25 04:49:06;;;;;;;14.45;7.82;;;;;;;9.13;37.68;101534.13;5003812;28;20073;-80
2021/03/25 04:51:34;;;;;;;12.00;7.50;;;;;;;9.13;37.08;101532.28;5001879;28;20045;-80
2021/03/25 04:54:30;;;;;;;12.65;7.43;;;;;;;9.12;37.60;101540.56;4997552;28;20389;-79
2021/03/25 04:57:03;;;;;;;17.50;8.48;;;;;;;9.14;37.62;101536.75;4994684;28;20052;-80
2021/03/25 04:59:31;;;;;;;16.05;8.10;;;;;;;9.13;37.18;101532.28;5001521;28;20069;-79
2021/03/25 05:02:06;;;;;;;14.82;8.00;;;;;;;9.16;37.80;101540.25;5007648;28;20047;-79
2021/03/25 05:04:37;;;;;;;14.10;8.07;;;;;;;9.14;37.21;101539.47;4985916;28;20070;-80
2021/03/25 05:07:05;;;;;;;15.98;8.43;;;;;;;9.14;37.40;101549.50;5012171;28;20046;-80
2021/03/25 05:09:36;;;;;;;13.98;8.23;;;;;;;9.15;37.68;101537.63;4993278;28;20050;-79
2021/03/25 05:12:05;;;;;;;14.10;7.65;;;;;;;9.14;37.44;101544.94;5001903;28;20042;-80
2021/03/25 05:14:33;;;;;;;15.35;8.43;;;;;;;9.13;37.42;101542.31;5010991;28;20109;-80
2021/03/25 05:17:11;;;;;;;13.18;8.00;;;;;;;9.15;37.99;101541.22;5000963;28;20046;-80
2021/03/25 05:19:48;;;;;;;13.77;7.93;;;;;;;9.15;37.59;101543.94;4992989;28;20097;-79
2021/03/25 05:22:23;;;;;;;15.48;8.20;;;;;;;9.15;38.13;101543.06;4999136;28;20042;-80
2021/03/25 05:24:58;;;;;;;15.20;8.65;;;;;;;9.16;37.93;101544.81;4990594;28;20046;-80
2021/03/25 05:27:32;;;;;;;15.15;7.90;;;;;;;9.15;38.06;101543.94;4994696;28;20125;-80
2021/03/25 05:30:02;;;;;;;12.82;7.80;;;;;;;9.15;37.67;101543.06;5011191;28;20038;-80
2021/03/25 05:32:35;;;;;;;13.75;7.90;;;;;;;9.17;37.85;101547.44;5025009;28;20044;-80
2021/03/25 05:35:08;;;;;;;14.40;7.80;;;;;;;9.16;37.87;101545.69;4988641;28;20045;-80
2021/03/25 05:37:36;;;;;;;13.00;7.75;;;;;;;9.17;37.78;101541.13;5005787;28;20084;-79
2021/03/25 05:40:12;;;;;;;14.23;7.28;;;;;;;9.20;38.07;101546.38;5006382;28;20045;-81
2021/03/25 05:42:48;;;;;;;14.18;8.00;;;;;;;9.20;38.00;101549.09;5009744;28;20061;-81
2021/03/25 05:45:31;;;;;;;15.50;8.10;;;;;;;9.21;38.19;101553.59;5017112;28;20033;-80
2021/03/25 05:48:15;;;;;;;13.70;7.35;;;;;;;9.21;38.27;101562.66;4995285;28;20042;-79
2021/03/25 05:50:51;;;;;;;12.85;7.88;;;;;;;9.22;38.21;101568.97;5011883;28;20128;-80
2021/03/25 05:53:35;;;;;;;16.67;8.55;;;;;;;9.22;38.29;101561.66;5006005;28;20049;-79
2021/03/25 05:56:15;;;;;;;15.27;8.82;;;;;;;9.24;38.46;101569.72;5013156;28;20538;-79
2021/03/25 05:58:48;;;;;;;16.00;9.32;;;;;;;9.23;38.04;101573.44;4978996;28;20050;-79
2021/03/25 06:01:30;;;;;;;15.53;8.80;;;;;;;9.24;38.18;101577.91;5011853;28;20473;-79
2021/03/25 06:04:02;;;;;;;18.73;8.88;;;;;;;9.22;38.10;101588.06;4992880;28;20786;-79
2021/03/25 06:06:46;;;;;;;21.00;10.07;;;;;;;9.25;38.89;101587.88;5008352;28;20050;-78
2021/03/25 06:09:20;;;;;;;18.55;9.80;;;;;;;9.24;38.18;101589.72;4996032;28;20299;-80
2021/03/25 06:11:57;;;;;;;18.55;10.20;;;;;;;9.26;38.28;101595.97;4988808;28;20044;-79
2021/03/25 06:14:53;;;;;;;16.88;9.15;;;;;;;9.24;38.26;101597.91;4992235;28;20050;-79
2021/03/25 06:17:40;;;;;;;18.02;9.57;;;;;;;9.27;38.54;101591.38;5003467;28;20030;-79
2021/03/25 06:20:34;;;;;;;19.70;10.23;;;;;;;9.24;38.59;101599.75;4993597;28;20482;-78
2021/03/25 06:23:17;;;;;;;21.00;10.60;;;;;;;9.25;38.67;101606.97;5006725;28;20037;-78
2021/03/25 06:25:58;;;;;;;19.90;10.32;;;;;;;9.26;38.49;101601.41;4989474;28;20141;-79
2021/03/25 06:28:33;;;;;;;17.25;9.75;;;;;;;9.27;38.50;101605.91;5007724;28;20042;-79
2021/03/25 06:31:22;;;;;;;19.70;10.98;;;;;;;9.26;38.48;101595.97;5007856;28;20065;-78
2021/03/25 06:33:56;;;;;;;17.67;10.55;;;;;;;9.28;38.43;101609.50;4996276;28;20080;-78
2021/03/25 06:36:41;;;;;;;19.70;10.55;;;;;;;9.30;38.70;101602.94;5005011;28;20052;-78
2021/03/25 06:39:19;;;;;;;21.17;11.73;;;;;;;9.31;38.63;101614.72;5017124;28;20041;-78
2021/03/25 06:41:55;;;;;;;21.58;11.32;;;;;;;9.31;38.66;101607.41;5011960;28;20053;-78
2021/03/25 06:44:40;;;;;;;22.55;12.02;;;;;;;9.34;38.88;101620.00;4975899;28;20490;-79
2021/03/25 06:47:17;;;;;;;21.40;12.25;;;;;;;9.34;38.64;101617.25;5011749;28;20412;-81
2021/03/25 06:49:50;;;;;;;21.30;11.70;;;;;;;9.36;38.53;101615.31;5001473;28;20489;-80
2021/03/25 06:52:26;;;;;;;20.40;11.52;;;;;;;9.38;39.13;101611.47;5004547;28;20041;-79
2021/03/25 06:55:01;;;;;;;18.58;11.23;;;;;;;9.40;38.96;101622.28;5007947;28;20046;-80
2021/03/25 06:57:39;;;;;;;22.63;12.85;;;;;;;9.43;38.90;101618.47;5010780;28;20504;-78
2021/03/25 07:00:12;;;;;;;20.98;11.93;;;;;;;9.43;38.47;101626.69;5018834;28;20045;-79
2021/03/25 07:02:39;;;;;;;21.95;11.80;;;;;;;9.40;38.63;101625.91;5012345;28;20046;-83
2021/03/25 07:05:10;;;;;;;23.23;13.57;;;;;;;9.46;38.67;101618.28;4994680;28;20057;-84
2021/03/25 07:07:41;;;;;;;22.08;13.32;;;;;;;9.49;38.57;101623.50;5001693;28;20042;-81
2021/03/25 07:10:16;;;;;;;21.27;12.70;;;;;;;9.51;39.00;101618.81;4977018;28;20038;-83
2021/03/25 07:12:46;;;;;;;24.13;14.90;;;;;;;9.52;38.90;101612.38;5012280;28;20046;-85
2021/03/25 07:15:37;;;;;;;23.52;14.00;;;;;;;9.55;39.11;101626.69;4994619;28;20097;-83
2021/03/25 07:18:24;;;;;;;23.35;13.15;;;;;;;9.59;39.49;101628.22;4992978;28;20038;-87
2021/03/25 07:21:35;;;;;;;25.63;14.80;;;;;;;9.63;39.33;101628.91;5001851;28;20449;-86
2021/03/25 07:24:07;;;;;;;28.05;15.48;;;;;;;9.66;39.30;101628.66;5007250;28;20393;-86
2021/03/25 07:26:39;;;;;;;28.45;16.60;;;;;;;9.72;39.30;101634.59;5009365;28;20743;-83
2021/03/25 07:29:20;;;;;;;30.60;16.50;;;;;;;9.80;39.70;101635.91;4988453;28;20034;-83
2021/03/25 07:31:57;;;;;;;31.75;16.65;;;;;;;9.86;39.73;101639.13;5015825;28;20042;-84
2021/03/25 07:34:32;;;;;;;26.38;15.25;;;;;;;9.92;39.40;101635.06;4986990;28;20063;-86
2021/03/25 07:37:01;;;;;;;28.23;16.38;;;;;;;9.98;39.22;101632.75;4979196;28;20046;-82
2021/03/25 07:39:34;;;;;;;27.38;15.10;;;;;;;10.06;39.33;101629.47;5012953;28;20429;-83
2021/03/25 07:42:03;;;;;;;29.40;17.63;;;;;;;10.09;39.11;101623.78;4996680;28;20054;-80
2021/03/25 07:44:39;;;;;;;27.77;15.88;;;;;;;10.18;39.48;101635.94;5008069;28;20511;-78
2021/03/25 07:47:30;;;;;;;28.15;16.00;;;;;;;10.19;39.32;101635.81;5010717;28;20490;-79
2021/03/25 07:50:20;;;;;;;28.40;15.48;;;;;;;10.24;39.37;101640.94;4986193;28;20030;-78
2021/03/25 07:52:48;;;;;;;26.27;15.15;;;;;;;10.25;38.93;101639.97;5009056;28;20042;-79
2021/03/25 07:55:22;;;;;;;27.77;15.10;;;;;;;10.33;39.24;101640.28;5016068;28;20033;-78
2021/03/25 07:57:52;;;;;;;22.98;13.93;;;;;;;10.35;39.02;101654.72;5006113;28;20047;-82
2021/03/25 08:00:26;;;;;;;23.88;12.68;;;;;;;10.40;39.16;101652.50;4996305;28;20093;-87
2021/03/25 08:05:48;;;;;;;25.80;13.98;;;;;;;10.45;38.83;101651.19;5167094;27;20384;-70
2021/03/25 08:08:35;;;;;;;25.83;15.85;;;;;;;10.50;39.17;101650.84;5163482;27;20108;-73
2021/03/25 08:11:17;;;;;;;27.67;14.65;;;;;;;10.56;39.14;101646.78;5138824;27;20031;-72
2021/03/25 08:13:48;;;;;;;24.38;13.90;;;;;;;10.58;38.93;101648.44;5126031;27;20423;-72
2021/03/25 08:16:25;;;;;;;27.27;15.68;;;;;;;10.60;38.72;101646.47;5125746;27;20039;-73
2021/03/25 08:19:21;;;;;;;24.05;14.02;;;;;;;10.65;39.04;101648.84;5105326;27;20516;-72
2021/03/25 08:22:01;;;;;;;29.27;16.02;;;;;;;10.70;38.82;101650.25;5140625;27;20046;-72
2021/03/25 08:25:01;;;;;;;29.67;17.45;;;;;;;10.72;39.09;101653.75;5119763;27;20092;-73
2021/03/25 08:27:59;;;;;;;27.98;16.52;;;;;;;10.72;38.99;101640.06;5122877;27;20683;-72
2021/03/25 08:30:47;;;;;;;23.45;14.73;;;;;;;10.78;38.89;101645.06;5110837;27;20050;-72
2021/03/25 08:33:25;;;;;;;21.63;12.77;;;;;;;10.81;38.81;101647.59;5136636;27;20116;-72
2021/03/25 08:36:02;;;;;;;29.55;16.92;;;;;;;10.87;39.18;101663.56;5141720;27;20110;-73
2021/03/25 08:38:53;;;;;;;30.65;17.67;;;;;;;10.92;39.12;101665.97;5134498;27;20043;-72
2021/03/25 08:41:24;;;;;;;27.85;17.05;;;;;;;10.95;39.22;101667.63;5128710;27;20415;-73
2021/03/25 08:43:58;;;;;;;29.65;16.92;;;;;;;11.03;38.95;101676.97;5129605;27;20135;-73
2021/03/25 08:46:46;;;;;;;28.42;17.00;;;;;;;11.06;38.82;101673.16;5125998;27;20054;-73
2021/03/25 08:49:19;;;;;;;28.55;17.63;;;;;;;11.13;38.92;101678.03;5147114;27;20091;-73
2021/03/25 08:51:47;;;;;;;31.20;18.10;;;;;;;11.16;38.83;101679.69;5141325;27;20042;-72
2021/03/25 08:54:22;;;;;;;28.92;17.35;;;;;;;11.25;38.69;101676.25;5110508;27;20441;-72
2021/03/25 08:56:52;;;;;;;33.53;17.63;;;;;;;11.30;38.69;101682.22;5147069;27;20039;-72
2021/03/25 08:59:23;;;;;;;31.05;18.73;;;;;;;11.37;38.71;101674.41;5140167;27;20031;-73
2021/03/25 09:01:55;;;;;;;29.90;18.58;;;;;;;11.42;38.67;101673.09;5122745;27;20062;-73
2021/03/25 09:04:25;;;;;;;29.48;17.60;;;;;;;11.48;38.62;101669.00;5144079;27;20523;-73
2021/03/25 09:06:53;;;;;;;28.42;17.05;;;;;;;11.53;38.66;101672.22;5125691;27;20035;-73
2021/03/25 09:09:41;;;;;;;33.15;19.13;;;;;;;11.60;38.40;101679.00;5126367;27;20122;-73
2021/03/25 09:12:15;;;;;;;30.88;17.90;;;;;;;11.65;38.37;101672.16;5143149;27;20039;-70
2021/03/25 09:14:43;;;;;;;31.50;18.85;;;;;;;11.69;38.30;101674.69;5120570;27;20512;-72
2021/03/25 09:17:18;;;;;;;31.13;18.08;;;;;;;11.77;38.16;101670.31;5108818;28;20039;-71
2021/03/25 09:19:48;;;;;;;30.52;18.88;;;;;;;11.80;38.26;101669.22;5113509;28;20504;-71
2021/03/25 09:22:43;;;;;;;33.05;19.50;;;;;;;11.83;38.21;101663.50;5095646;28;20032;-71
2021/03/25 09:25:37;;;;;;;27.92;17.33;;;;;;;11.89;38.35;101665.75;5115769;27;20043;-71
2021/03/25 09:28:06;;;;;;;;;;;;;;;11.66;38.80;101667.56;5134752;27;20051;-73
2021/03/25 09:30:37;;;;;;;26.77;16.20;;;;;;;11.99;38.32;101672.28;5134264;27;20369;-72
2021/03/25 09:33:42;;;;;;;30.77;17.92;;;;;;;12.08;38.24;101679.78;5134145;27;20657;-72
2021/03/25 09:36:49;;;;;;;24.05;14.50;;;;;;;12.15;37.90;101678.31;5134007;27;20043;-72
2021/03/25 09:39:23;;;;;;;27.77;16.98;;;;;;;12.25;38.18;101678.44;5133992;27;20523;-72
2021/03/25 09:41:52;;;;;;;27.65;16.48;;;;;;;12.32;38.08;101671.44;5127704;27;20039;-71
2021/03/25 09:44:35;;;;;;;27.48;15.93;;;;;;;12.41;37.76;101666.09;5128694;27;20074;-70
2021/03/25 09:47:30;;;;;;;24.63;15.90;;;;;;;12.47;37.45;101663.84;5120706;27;20039;-70
2021/03/25 09:50:19;;;;;;;25.73;16.33;;;;;;;12.53;37.69;101671.56;5125268;27;20036;-71
2021/03/25 09:53:06;;;;;;;24.30;16.13;;;;;;;12.60;37.63;101668.19;5120893;27;20492;-71
2021/03/25 09:55:36;;;;;;;24.85;14.75;;;;;;;12.67;37.67;101665.84;5127021;27;20108;-71
2021/03/25 09:58:05;;;;;;;24.35;15.68;;;;;;;12.73;37.87;101676.31;5128644;27;20043;-71
2021/03/25 10:00:57;;;;;;;26.10;15.30;;;;;;;12.78;37.57;101676.78;5126645;27;20051;-69
2021/03/25 10:04:06;;;;;;;24.13;14.98;;;;;;;12.85;37.55;101671.66;5129725;27;20041;-70
2021/03/25 10:06:55;;;;;;;24.88;14.30;;;;;;;12.92;37.78;101668.31;5111936;27;20078;-70
2021/03/25 10:09:57;;;;;;;23.33;14.75;;;;;;;12.98;37.76;101670.56;5105993;27;20039;-69
2021/03/25 10:12:54;;;;;;;24.10;14.15;;;;;;;13.07;37.65;101671.66;5129782;27;20046;-70
2021/03/25 10:15:47;;;;;;;25.55;15.50;;;;;;;13.14;37.74;101668.25;5130674;27;20384;-70
2021/03/25 10:18:56;;;;;;;23.85;15.32;;;;;;;13.26;38.04;101670.94;5116557;27;20043;-69
2021/03/25 10:22:00;;;;;;;21.67;13.38;;;;;;;13.37;37.88;101663.53;5130579;27;20035;-69
2021/03/25 10:24:39;;;;;;;24.77;14.40;;;;;;;13.49;37.69;101669.88;5111063;27;20481;-70
2021/03/25 10:27:19;;;;;;;23.27;13.50;;;;;;;13.62;37.21;101672.44;5128924;27;20143;-69
2021/03/25 10:29:47;;;;;;;22.77;14.55;;;;;;;13.68;37.22;101669.16;5105657;27;20047;-70
2021/03/25 10:32:30;;;;;;;18.75;12.73;;;;;;;13.78;36.92;101665.47;5113227;27;20077;-70
2021/03/25 10:35:00;;;;;;;24.77;14.20;;;;;;;13.81;37.20;101662.47;5105556;27;20039;-72
2021/03/25 10:37:36;;;;;;;22.73;13.60;;;;;;;13.91;36.50;101668.06;5119822;27;20039;-70
2021/03/25 10:40:15;;;;;;;21.23;13.43;;;;;;;14.00;36.69;101661.72;5108878;28;20080;-71
2021/03/25 10:42:44;;;;;;;20.08;12.65;;;;;;;14.05;36.67;101664.97;5127803;27;20039;-72
2021/03/25 10:45:21;;;;;;;17.30;11.07;;;;;;;14.14;36.33;101666.03;5132427;27;20035;-72
2021/03/25 10:47:54;;;;;;;18.95;12.00;;;;;;;14.20;35.65;101657.22;5131827;27;20043;-72
2021/03/25 10:50:29;;;;;;;17.90;11.40;;;;;;;14.26;36.26;101656.66;5109737;27;20118;-71
2021/03/25 10:53:02;;;;;;;19.75;12.60;;;;;;;14.34;36.01;101661.47;5129844;27;20042;-73
2021/03/25 10:55:37;;;;;;;19.13;12.60;;;;;;;14.39;35.56;101665.59;5112602;27;20476;-72
2021/03/25 10:58:06;;;;;;;19.15;12.43;;;;;;;14.43;35.79;101657.91;5123780;27;20109;-73
2021/03/25 11:00:36;;;;;;;19.80;13.80;;;;;;;14.50;35.71;101659.97;5130458;27;20042;-73
2021/03/25 11:03:19;;;;;;;19.38;13.30;;;;;;;14.58;35.41;101654.63;5124881;27;20043;-71
2021/03/25 11:05:56;;;;;;;24.02;13.65;;;;;;;14.65;35.66;101652.22;5126000;27;20076;-70
2021/03/25 11:08:32;;;;;;;19.42;13.95;;;;;;;14.72;35.28;101647.03;5128445;27;20043;-70
2021/03/25 11:11:03;;;;;;;21.38;14.00;;;;;;;14.79;35.47;101648.22;5129838;27;20062;-70
2021/03/25 11:13:32;;;;;;;20.95;14.07;;;;;;;14.84;35.76;101646.78;5123011;27;20096;-70
2021/03/25 11:16:03;;;;;;;20.40;14.10;;;;;;;14.93;35.01;101650.56;5129558;27;20179;-70
2021/03/25 11:18:45;;;;;;;22.25;13.13;;;;;;;14.98;34.74;101651.88;5130148;27;20035;-70
2021/03/25 11:21:24;;;;;;;20.90;13.07;;;;;;;15.07;34.69;101651.03;5129014;27;20050;-70
2021/03/25 11:23:59;;;;;;;20.20;12.68;;;;;;;15.14;34.56;101648.59;5126114;27;20424;-70
2021/03/25 11:26:27;;;;;;;20.42;13.18;;;;;;;15.18;35.02;101647.28;5121439;27;20043;-69
2021/03/25 11:28:54;;;;;;;21.50;13.40;;;;;;;15.26;34.47;101649.31;5109981;27;20039;-70
2021/03/25 11:31:24;;;;;;;18.80;11.75;;;;;;;15.33;34.61;101644.97;5111326;27;20124;-70
2021/03/25 11:33:56;;;;;;;19.02;12.43;;;;;;;15.38;34.40;101649.06;5130882;27;20114;-70
2021/03/25 11:36:33;;;;;;;16.08;11.45;;;;;;;15.45;34.36;101649.34;5128334;27;20046;-70
2021/03/25 11:39:20;;;;;;;19.55;11.60;;;;;;;15.48;33.69;101643.50;5104814;27;20043;-68
2021/03/25 11:41:50;;;;;;;18.00;11.93;;;;;;;15.49;34.22;101648.00;5125552;27;20023;-72
2021/03/25 11:44:39;;;;;;;21.17;12.65;;;;;;;15.52;33.50;101633.94;5131436;27;20046;-72
2021/03/25 11:47:35;;;;;;;16.40;10.60;;;;;;;15.54;33.62;101633.81;5113199;27;20125;-71
2021/03/25 11:50:09;;;;;;;17.48;11.98;;;;;;;15.57;33.94;101634.38;5113367;27;20138;-72
2021/03/25 11:52:42;;;;;;;16.40;10.98;;;;;;;15.62;33.60;101634.81;5131795;27;20062;-71
2021/03/25 11:55:21;;;;;;;17.27;11.23;;;;;;;15.66;33.59;101633.53;5131501;27;20051;-72
2021/03/25 11:57:50;;;;;;;17.83;11.38;;;;;;;15.68;33.65;101631.50;5131863;27;20043;-72
2021/03/25 12:00:20;;;;;;;16.52;10.35;;;;;;;15.73;33.46;101620.88;5130958;27;20096;-72
2021/03/25 12:02:48;;;;;;;16.25;9.52;;;;;;;15.77;34.04;101626.97;5131520;28;20046;-72
2021/03/25 12:05:39;;;;;;;14.60;9.77;;;;;;;15.79;32.98;101623.06;5128478;28;20035;-70
2021/03/25 12:08:22;;;;;;;14.38;9.48;;;;;;;15.86;33.29;101614.19;5105422;28;20043;-73